createdAt,value
2022-10-12T00:00:39.845Z,8.08
2022-10-12T00:03:07.784Z,8.18
2022-10-12T00:05:37.130Z,8.12
2022-10-12T00:08:05.022Z,8.07
2022-10-12T00:10:33.031Z,7.91
2022-10-12T00:13:01.147Z,7.96
2022-10-12T00:15:29.125Z,7.91
2022-10-12T00:17:57.054Z,8.05
2022-10-12T00:20:25.005Z,8.26
2022-10-12T00:22:54.261Z,8.37
2022-10-12T00:25:22.203Z,8.46
2022-10-12T00:27:50.155Z,8.48
2022-10-12T00:30:18.361Z,8.60
2022-10-12T00:32:46.267Z,8.51
2022-10-12T00:35:14.283Z,8.54
2022-10-12T00:37:42.165Z,8.56
2022-10-12T00:40:12.905Z,8.49
2022-10-12T00:42:40.922Z,8.46
2022-10-12T00:45:11.222Z,8.52
2022-10-12T00:47:41.308Z,8.44
2022-10-12T00:50:13.029Z,8.34
2022-10-12T00:52:43.770Z,8.30
2022-10-12T00:55:16.896Z,8.39
2022-10-12T00:57:47.242Z,8.43
2022-10-12T01:00:16.215Z,8.45
2022-10-12T01:02:44.982Z,8.49
2022-10-12T01:05:13.414Z,8.47
2022-10-12T01:07:41.384Z,8.55
2022-10-12T01:10:10.100Z,8.68
2022-10-12T01:12:40.249Z,8.76
2022-10-12T01:15:08.977Z,8.87
2022-10-12T01:17:42.540Z,8.81
2022-10-12T01:20:36.030Z,8.78
2022-10-12T01:23:25.554Z,8.72
2022-10-12T01:26:11.311Z,8.68
2022-10-12T01:28:47.865Z,8.61
2022-10-12T01:31:22.975Z,8.55
2022-10-12T01:33:56.310Z,8.55
2022-10-12T01:36:28.761Z,8.51
2022-10-12T01:39:01.222Z,8.51
2022-10-12T01:41:32.837Z,8.60
2022-10-12T01:44:00.732Z,8.69
2022-10-12T01:46:43.794Z,8.77
2022-10-12T01:49:11.980Z,8.88
2022-10-12T01:51:52.574Z,8.97
2022-10-12T01:54:29.274Z,9.03
2022-10-12T01:56:59.618Z,9.11
2022-10-12T01:59:35.183Z,8.97
2022-10-12T02:02:09.890Z,8.92
2022-10-12T02:04:40.890Z,8.83
2022-10-12T02:07:15.278Z,8.82
2022-10-12T02:09:43.376Z,8.74
2022-10-12T02:12:15.327Z,8.79
2022-10-12T02:14:46.478Z,8.89
2022-10-12T02:17:18.429Z,8.94
2022-10-12T02:19:49.269Z,9.00
2022-10-12T02:22:17.778Z,9.14
2022-10-12T02:24:47.493Z,9.13
2022-10-12T02:27:17.042Z,9.23
2022-10-12T02:29:46.965Z,9.24
2022-10-12T02:32:20.622Z,9.25
2022-10-12T02:34:53.376Z,9.18
2022-10-12T02:37:30.264Z,9.17
2022-10-12T02:40:04.283Z,9.24
2022-10-12T02:42:46.639Z,9.25
2022-10-12T02:45:24.281Z,9.36
2022-10-12T02:47:55.167Z,9.39
2022-10-12T02:50:24.082Z,9.43
2022-10-12T02:52:53.048Z,9.48
2022-10-12T02:55:20.969Z,9.45
2022-10-12T02:57:48.902Z,9.46
2022-10-12T03:00:18.102Z,9.46
2022-10-12T03:02:45.965Z,9.41
2022-10-12T03:05:15.421Z,9.45
2022-10-12T03:07:43.532Z,9.38
2022-10-12T03:10:11.833Z,9.37
2022-10-12T03:12:39.745Z,9.36
2022-10-12T03:15:08.286Z,9.36
2022-10-12T03:17:36.401Z,9.27
2022-10-12T03:20:04.849Z,9.30
2022-10-12T03:22:34.159Z,9.30
2022-10-12T03:25:08.898Z,9.21
2022-10-12T03:27:37.105Z,9.15
2022-10-12T03:30:05.566Z,9.09
2022-10-12T03:32:33.606Z,9.01
2022-10-12T03:35:01.512Z,8.99
2022-10-12T03:37:29.441Z,8.98
2022-10-12T03:39:58.742Z,8.89
2022-10-12T03:42:26.621Z,8.78
2022-10-12T03:44:54.496Z,8.73
2022-10-12T03:47:22.413Z,8.76
2022-10-12T03:49:50.435Z,8.53
2022-10-12T03:52:18.398Z,8.52
2022-10-12T03:54:46.454Z,8.56
2022-10-12T03:57:15.810Z,8.52
2022-10-12T03:59:43.756Z,8.58
2022-10-12T04:02:16.542Z,8.53
2022-10-12T04:04:45.142Z,8.54
2022-10-12T04:07:13.257Z,8.47
2022-10-12T04:09:41.160Z,8.44
2022-10-12T04:12:09.098Z,8.36
2022-10-12T04:14:38.393Z,8.27
2022-10-12T04:17:06.291Z,8.20
2022-10-12T04:19:34.228Z,8.15
2022-10-12T04:22:02.167Z,8.14
2022-10-12T04:24:30.059Z,8.20
2022-10-12T04:26:57.946Z,8.15
2022-10-12T04:29:26.053Z,8.12
2022-10-12T04:31:55.490Z,7.98
2022-10-12T04:34:23.521Z,7.95
2022-10-12T04:36:51.855Z,7.88
2022-10-12T04:39:19.725Z,7.88
2022-10-12T04:41:47.626Z,7.90
2022-10-12T04:44:15.540Z,7.86
2022-10-12T04:46:43.452Z,7.73
2022-10-12T04:49:12.777Z,7.66
2022-10-12T04:51:40.702Z,7.75
2022-10-12T04:54:08.713Z,7.78
2022-10-12T04:56:36.638Z,7.81
2022-10-12T04:59:04.577Z,7.88
2022-10-12T05:01:32.661Z,7.86
2022-10-12T05:04:01.425Z,7.83
2022-10-12T05:06:30.889Z,7.84
2022-10-12T05:08:58.956Z,7.84
2022-10-12T05:11:27.029Z,7.77
2022-10-12T05:13:54.937Z,7.81
2022-10-12T05:16:23.181Z,7.80
2022-10-12T05:18:51.066Z,7.74
2022-10-12T05:21:18.969Z,7.84
2022-10-12T05:23:51.393Z,7.89
2022-10-12T05:26:19.354Z,7.99
2022-10-12T05:28:47.300Z,7.87
2022-10-12T05:31:15.466Z,7.77
2022-10-12T05:33:43.365Z,7.70
2022-10-12T05:36:11.337Z,7.67
2022-10-12T05:38:39.331Z,7.56
2022-10-12T05:41:09.458Z,7.55
2022-10-12T05:43:37.374Z,7.51
2022-10-12T05:46:05.340Z,7.39
2022-10-12T05:48:33.440Z,7.40
2022-10-12T05:51:01.481Z,7.18
2022-10-12T05:53:29.389Z,6.98
2022-10-12T05:55:58.687Z,7.01
2022-10-12T05:58:28.799Z,6.95
2022-10-12T06:00:57.019Z,7.09
2022-10-12T06:03:26.429Z,7.09
2022-10-12T06:05:54.664Z,7.01
2022-10-12T06:08:22.533Z,7.05
2022-10-12T06:10:52.060Z,7.12
2022-10-12T06:13:20.148Z,7.22
2022-10-12T06:15:50.111Z,7.18
2022-10-12T06:18:18.524Z,7.25
2022-10-12T06:20:49.533Z,7.29
2022-10-12T06:23:18.311Z,7.41
2022-10-12T06:25:47.702Z,7.42
2022-10-12T06:28:15.772Z,7.53
2022-10-12T06:30:43.913Z,7.49
2022-10-12T06:33:13.358Z,7.46
2022-10-12T06:35:41.335Z,7.37
2022-10-12T06:38:09.431Z,7.40
2022-10-12T06:40:37.300Z,7.35
2022-10-12T06:43:05.290Z,7.37
2022-10-12T06:45:33.322Z,7.33
2022-10-12T06:48:01.582Z,7.33
2022-10-12T06:50:31.127Z,7.35
2022-10-12T06:52:59.014Z,7.40
2022-10-12T06:55:26.936Z,7.42
2022-10-12T06:57:56.237Z,7.46
2022-10-12T07:00:25.473Z,7.51
2022-10-12T07:02:53.713Z,7.53
2022-10-12T07:05:22.387Z,7.61
2022-10-12T07:07:51.761Z,7.59
2022-10-12T07:10:19.699Z,7.65
2022-10-12T07:12:47.898Z,7.70
2022-10-12T07:15:15.930Z,7.76
2022-10-12T07:17:43.882Z,7.85
2022-10-12T07:20:11.893Z,7.92
2022-10-12T07:22:39.814Z,7.95
2022-10-12T07:25:10.299Z,8.00
2022-10-12T07:27:38.408Z,8.04
2022-10-12T07:30:07.444Z,8.10
2022-10-12T07:32:35.393Z,8.16
2022-10-12T07:35:03.284Z,8.22
2022-10-12T07:37:31.190Z,8.29
2022-10-12T07:39:59.090Z,8.33
2022-10-12T07:42:28.493Z,8.49
2022-10-12T07:44:56.407Z,8.60
2022-10-12T07:47:24.730Z,8.65
2022-10-12T07:49:52.621Z,8.74
2022-10-12T07:52:20.540Z,8.85
2022-10-12T07:54:48.805Z,8.94
2022-10-12T07:57:16.805Z,9.06
2022-10-12T07:59:46.080Z,9.16
2022-10-12T08:02:14.342Z,9.27
2022-10-12T08:04:42.348Z,9.26
2022-10-12T08:07:10.309Z,9.41
2022-10-12T08:09:38.210Z,9.60
2022-10-12T08:12:07.147Z,9.63
2022-10-12T08:14:35.054Z,9.75
2022-10-12T08:17:05.394Z,9.78
2022-10-12T08:19:35.451Z,9.83
2022-10-12T08:22:03.446Z,9.80
2022-10-12T08:24:31.362Z,9.96
2022-10-12T08:27:01.616Z,10.15
2022-10-12T08:29:29.762Z,10.22
2022-10-12T08:31:57.691Z,10.35
2022-10-12T08:34:27.101Z,10.51
2022-10-12T08:36:54.998Z,10.61
2022-10-12T08:39:22.958Z,10.64
2022-10-12T08:41:58.408Z,10.67
2022-10-12T08:44:43.787Z,10.78
2022-10-12T08:47:14.711Z,10.97
2022-10-12T08:49:49.432Z,10.95
2022-10-12T08:52:27.093Z,11.00
2022-10-12T08:54:56.181Z,11.53
2022-10-12T08:57:24.071Z,11.82
2022-10-12T08:59:52.011Z,11.92
2022-10-12T09:02:32.493Z,12.16
2022-10-12T09:05:04.118Z,12.24
2022-10-12T09:07:36.041Z,12.20
2022-10-12T09:10:12.121Z,12.20
2022-10-12T09:12:47.303Z,12.47
2022-10-12T09:15:18.128Z,12.66
2022-10-12T09:17:48.318Z,12.97
2022-10-12T09:20:20.723Z,13.06
2022-10-12T09:22:51.134Z,13.21
2022-10-12T09:25:20.277Z,13.34
2022-10-12T09:27:48.482Z,13.33
2022-10-12T09:30:17.845Z,13.14
2022-10-12T09:33:03.676Z,13.20
2022-10-12T09:35:33.771Z,13.35
2022-10-12T09:38:02.417Z,13.42
2022-10-12T09:40:32.242Z,13.25
2022-10-12T09:43:01.767Z,13.44
2022-10-12T09:45:32.335Z,13.55
2022-10-12T09:48:15.456Z,13.26
2022-10-12T09:50:47.261Z,13.53
2022-10-12T09:53:20.707Z,13.66
2022-10-12T09:55:55.045Z,13.74
2022-10-12T09:58:23.098Z,13.91
2022-10-12T10:01:19.462Z,13.93
2022-10-12T10:03:48.654Z,14.04
2022-10-12T10:06:24.197Z,14.29
2022-10-12T10:08:52.110Z,14.33
2022-10-12T10:11:23.605Z,14.03
2022-10-12T10:13:53.909Z,14.24
2022-10-12T10:16:24.699Z,14.32
2022-10-12T10:18:57.670Z,14.38
2022-10-12T10:21:30.000Z,14.41
2022-10-12T10:23:59.540Z,14.47
2022-10-12T10:26:29.338Z,14.53
2022-10-12T10:28:59.894Z,14.74
2022-10-12T10:31:29.699Z,14.71
2022-10-12T10:34:26.347Z,14.97
2022-10-12T10:36:57.140Z,14.93
2022-10-12T10:39:27.445Z,14.98
2022-10-12T10:41:56.271Z,14.87
2022-10-12T10:44:32.324Z,14.99
2022-10-12T10:47:03.592Z,15.10
2022-10-12T10:49:37.927Z,15.20
2022-10-12T10:52:09.282Z,15.23
2022-10-12T10:54:38.818Z,15.44
2022-10-12T10:57:12.081Z,15.58
2022-10-12T10:59:50.375Z,15.59
2022-10-12T11:02:26.636Z,15.37
2022-10-12T11:04:59.495Z,15.42
2022-10-12T11:07:32.406Z,15.37
2022-10-12T11:10:04.958Z,15.55
2022-10-12T11:12:35.502Z,15.78
2022-10-12T11:15:08.954Z,15.54
2022-10-12T11:17:42.194Z,15.45
2022-10-12T11:20:32.023Z,15.63
2022-10-12T11:23:05.551Z,15.64
2022-10-12T11:25:38.589Z,15.64
2022-10-12T11:28:07.978Z,15.73
2022-10-12T11:30:40.185Z,15.89
2022-10-12T11:33:12.441Z,15.90
2022-10-12T11:35:43.832Z,15.97
2022-10-12T11:38:18.413Z,15.81
2022-10-12T11:43:41.595Z,16.08
2022-10-12T11:46:13.690Z,16.26
2022-10-12T11:48:45.973Z,16.46
2022-10-12T11:51:14.125Z,16.37
2022-10-12T11:53:50.153Z,16.13
2022-10-12T11:56:22.318Z,16.39
2022-10-12T11:59:01.041Z,16.20
2022-10-12T12:01:48.918Z,16.04
2022-10-12T12:07:41.745Z,16.72
2022-10-12T12:10:43.030Z,16.60
2022-10-12T12:13:22.941Z,16.71
2022-10-12T12:16:31.700Z,16.71
2022-10-12T12:19:36.987Z,16.55
2022-10-12T12:22:28.793Z,16.87
2022-10-12T12:25:17.662Z,16.58
2022-10-12T12:27:48.682Z,16.58
2022-10-12T12:30:36.597Z,16.48
2022-10-12T12:33:07.547Z,16.71
2022-10-12T12:35:38.682Z,16.62
2022-10-12T12:38:19.442Z,16.74
2022-10-12T12:41:02.130Z,16.68
2022-10-12T12:43:52.226Z,16.65
2022-10-12T12:46:22.193Z,16.66
2022-10-12T12:49:03.947Z,16.99
2022-10-12T12:51:39.268Z,16.87
2022-10-12T12:54:14.421Z,16.71
2022-10-12T12:57:04.098Z,16.74
2022-10-12T12:59:55.069Z,16.87
2022-10-12T13:02:40.573Z,16.93
2022-10-12T13:05:30.946Z,16.90
2022-10-12T13:08:07.294Z,16.90
2022-10-12T13:10:42.278Z,17.10
2022-10-12T13:13:22.825Z,17.20
2022-10-12T13:16:03.064Z,17.11
2022-10-12T13:18:52.373Z,17.17
2022-10-12T13:21:23.546Z,17.24
2022-10-12T13:23:54.636Z,17.34
2022-10-12T13:26:25.586Z,16.91
2022-10-12T13:28:53.926Z,16.88
2022-10-12T13:31:26.490Z,16.86
2022-10-12T13:34:01.246Z,16.78
2022-10-12T13:36:31.204Z,17.07
2022-10-12T13:39:00.482Z,16.64
2022-10-12T13:41:30.440Z,17.40
2022-10-12T13:43:59.453Z,17.48
2022-10-12T13:46:39.347Z,17.78
2022-10-12T13:49:14.729Z,17.81
2022-10-12T13:51:43.967Z,17.58
2022-10-12T13:54:23.442Z,17.86
2022-10-12T13:56:54.049Z,17.93
2022-10-12T13:59:24.488Z,17.87
2022-10-12T14:01:55.558Z,18.07
2022-10-12T14:04:29.913Z,17.65
2022-10-12T14:07:00.994Z,17.71
2022-10-12T14:09:30.002Z,17.29
2022-10-12T14:11:58.270Z,17.24
2022-10-12T14:14:32.017Z,17.48
2022-10-12T14:17:00.124Z,17.95
2022-10-12T14:19:45.888Z,17.78
2022-10-12T14:22:14.114Z,17.70
2022-10-12T14:24:42.011Z,18.17
2022-10-12T14:27:20.343Z,18.02
2022-10-12T14:29:49.011Z,18.07
2022-10-12T14:32:42.489Z,17.50
2022-10-12T14:35:22.117Z,17.39
2022-10-12T14:37:50.694Z,17.61
2022-10-12T14:40:29.429Z,17.38
2022-10-12T14:43:03.529Z,17.91
2022-10-12T14:45:32.671Z,17.57
2022-10-12T14:48:01.407Z,16.82
2022-10-12T14:50:32.096Z,16.77
2022-10-12T14:53:02.507Z,17.10
2022-10-12T14:55:32.026Z,17.39
2022-10-12T14:58:00.111Z,17.09
2022-10-12T15:00:30.105Z,17.05
2022-10-12T15:02:58.413Z,16.82
2022-10-12T15:05:28.950Z,17.31
2022-10-12T15:07:58.414Z,17.17
2022-10-12T15:10:27.387Z,16.86
2022-10-12T15:12:55.543Z,16.99
2022-10-12T15:15:32.003Z,17.35
2022-10-12T15:18:00.129Z,17.06
2022-10-12T15:20:28.286Z,17.58
2022-10-12T15:22:56.225Z,16.56
2022-10-12T15:25:27.814Z,16.38
2022-10-12T15:27:55.962Z,15.85
2022-10-12T15:30:23.890Z,15.52
2022-10-12T15:32:51.773Z,15.66
2022-10-12T15:35:22.067Z,15.70
2022-10-12T15:37:50.545Z,15.51
2022-10-12T15:40:19.364Z,15.48
2022-10-12T15:42:48.798Z,15.36
2022-10-12T15:45:22.748Z,15.35
2022-10-12T15:47:51.439Z,15.23
2022-10-12T15:50:21.208Z,15.12
2022-10-12T15:52:49.459Z,15.14
2022-10-12T15:55:19.277Z,15.16
2022-10-12T15:57:49.013Z,14.95
2022-10-12T16:00:18.110Z,14.78
2022-10-12T16:02:46.037Z,15.01
2022-10-12T16:05:22.548Z,15.05
2022-10-12T16:07:50.608Z,14.66
2022-10-12T16:10:19.874Z,14.58
2022-10-12T16:12:50.870Z,14.48
2022-10-12T16:15:21.429Z,14.20
2022-10-12T16:17:49.333Z,14.86
2022-10-12T16:20:17.757Z,14.98
2022-10-12T16:22:45.959Z,14.89
2022-10-12T16:25:15.185Z,14.93
2022-10-12T16:27:43.155Z,14.91
2022-10-12T16:30:13.689Z,14.84
2022-10-12T16:32:41.865Z,14.61
2022-10-12T16:35:10.709Z,14.71
2022-10-12T16:37:38.790Z,14.66
2022-10-12T16:40:08.340Z,14.36
2022-10-12T16:42:36.506Z,13.88
2022-10-12T16:45:05.260Z,13.75
2022-10-12T16:47:37.620Z,13.69
2022-10-12T16:50:08.608Z,13.27
2022-10-12T16:52:36.500Z,12.55
2022-10-12T16:55:04.878Z,12.12
2022-10-12T16:57:32.814Z,12.13
2022-10-12T17:00:00.705Z,12.69
2022-10-12T17:02:28.775Z,12.92
2022-10-12T17:04:58.457Z,12.81
2022-10-12T17:07:26.973Z,12.99
2022-10-12T17:09:55.877Z,12.78
2022-10-12T17:12:23.821Z,12.34
2022-10-12T17:14:52.175Z,11.79
2022-10-12T17:17:20.301Z,11.86
2022-10-12T17:19:48.362Z,11.49
2022-10-12T17:22:17.980Z,11.42
2022-10-12T17:24:46.081Z,12.00
2022-10-12T17:27:15.764Z,12.24
2022-10-12T17:29:43.904Z,11.92
2022-10-12T17:32:12.453Z,11.92
2022-10-12T17:34:42.427Z,11.98
2022-10-12T17:37:12.200Z,11.98
2022-10-12T17:39:43.369Z,12.12
2022-10-12T17:42:11.563Z,12.28
2022-10-12T17:44:39.765Z,12.25
2022-10-12T17:47:07.892Z,12.09
2022-10-12T17:49:35.818Z,12.33
2022-10-12T17:52:03.729Z,12.27
2022-10-12T17:54:32.649Z,12.02
2022-10-12T17:57:01.987Z,11.41
2022-10-12T17:59:29.969Z,11.30
2022-10-12T18:01:57.873Z,10.93
2022-10-12T18:04:26.466Z,11.11
2022-10-12T18:06:54.572Z,11.06
2022-10-12T18:09:22.477Z,11.19
2022-10-12T18:11:50.353Z,11.23
2022-10-12T18:14:19.938Z,10.74
2022-10-12T18:16:47.822Z,10.45
2022-10-12T18:19:15.903Z,10.42
2022-10-12T18:21:44.153Z,10.33
2022-10-12T18:24:17.459Z,10.44
2022-10-12T18:26:46.497Z,10.33
2022-10-12T18:29:14.383Z,10.19
2022-10-12T18:31:43.777Z,10.43
2022-10-12T18:34:11.854Z,10.45
2022-10-12T18:36:41.343Z,10.70
2022-10-12T18:39:09.549Z,10.45
2022-10-12T18:41:37.573Z,10.81
2022-10-12T18:44:05.554Z,10.79
2022-10-12T18:46:35.360Z,10.99
2022-10-12T18:49:06.938Z,10.96
2022-10-12T18:51:37.118Z,10.50
2022-10-12T18:54:06.015Z,10.38
2022-10-12T18:56:35.604Z,9.96
2022-10-12T18:59:04.452Z,10.01
2022-10-12T19:01:33.178Z,10.07
2022-10-12T19:04:02.057Z,9.97
2022-10-12T19:06:33.314Z,9.81
2022-10-12T19:09:02.440Z,9.95
2022-10-12T19:11:31.177Z,9.75
2022-10-12T19:14:00.861Z,9.71
2022-10-12T19:16:29.416Z,9.59
2022-10-12T19:18:58.168Z,9.83
2022-10-12T19:21:26.476Z,9.71
2022-10-12T19:23:55.930Z,9.92
2022-10-12T19:26:25.966Z,9.73
2022-10-12T19:28:56.085Z,9.82
2022-10-12T19:31:26.527Z,10.02
2022-10-12T19:33:56.726Z,9.81
2022-10-12T19:36:25.046Z,9.76
2022-10-12T19:38:52.918Z,9.75
2022-10-12T19:41:22.199Z,9.92
2022-10-12T19:43:50.113Z,9.80
2022-10-12T19:46:18.049Z,9.65
2022-10-12T19:48:50.088Z,9.54
2022-10-12T19:51:18.509Z,9.52
2022-10-12T19:53:46.456Z,9.57
2022-10-12T19:56:16.146Z,9.65
2022-10-12T19:58:46.577Z,9.83
2022-10-12T20:01:16.527Z,9.70
2022-10-12T20:03:47.887Z,9.48
2022-10-12T20:06:16.251Z,9.47
2022-10-12T20:08:45.357Z,9.42
2022-10-12T20:11:17.972Z,9.47
2022-10-12T20:13:47.848Z,9.82
2022-10-12T20:16:16.177Z,9.85
2022-10-12T20:18:44.112Z,9.59
2022-10-12T20:21:20.846Z,9.56
2022-10-12T20:23:49.018Z,9.54
2022-10-12T20:26:18.889Z,9.80
2022-10-12T20:28:48.743Z,9.74
2022-10-12T20:31:18.571Z,9.81
2022-10-12T20:33:46.536Z,10.09
2022-10-12T20:36:20.955Z,10.00
2022-10-12T20:38:48.957Z,9.92
2022-10-12T20:41:18.057Z,9.60
2022-10-12T20:43:46.302Z,9.52
2022-10-12T20:46:17.157Z,9.54
2022-10-12T20:48:45.965Z,9.32
2022-10-12T20:51:21.886Z,9.64
2022-10-12T20:53:50.882Z,9.66
2022-10-12T20:56:18.832Z,9.46
2022-10-12T20:58:47.080Z,9.09
2022-10-12T21:01:17.697Z,8.95
2022-10-12T21:03:45.666Z,8.91
2022-10-12T21:06:15.705Z,9.13
2022-10-12T21:08:44.157Z,9.20
2022-10-12T21:11:12.521Z,9.31
2022-10-12T21:13:41.786Z,9.56
2022-10-12T21:16:09.935Z,9.63
2022-10-12T21:18:39.417Z,9.80
2022-10-12T21:21:11.533Z,9.44
2022-10-12T21:23:39.942Z,9.43
2022-10-12T21:26:12.334Z,9.69
2022-10-12T21:28:40.376Z,9.76
2022-10-12T21:31:08.650Z,9.71
2022-10-12T21:33:37.266Z,9.42
2022-10-12T21:36:10.452Z,9.60
2022-10-12T21:38:38.784Z,9.30
2022-10-12T21:41:07.710Z,9.34
2022-10-12T21:43:35.993Z,9.36
2022-10-12T21:46:04.848Z,9.24
2022-10-12T21:48:33.540Z,9.11
2022-10-12T21:51:01.561Z,9.08
2022-10-12T21:53:31.190Z,9.24
2022-10-12T21:55:59.302Z,8.84
2022-10-12T21:58:27.229Z,8.89
2022-10-12T22:00:55.197Z,8.84
2022-10-12T22:03:23.721Z,9.13
2022-10-12T22:05:51.657Z,9.24
2022-10-12T22:08:19.597Z,9.24
2022-10-12T22:10:48.855Z,9.27
2022-10-12T22:13:16.752Z,9.24
2022-10-12T22:15:44.703Z,9.14
2022-10-12T22:18:12.746Z,9.11
2022-10-12T22:20:40.683Z,9.10
2022-10-12T22:23:08.597Z,9.12
2022-10-12T22:25:36.530Z,9.17
2022-10-12T22:28:05.955Z,9.33
2022-10-12T22:30:33.842Z,9.39
2022-10-12T22:33:01.732Z,9.37
2022-10-12T22:35:29.660Z,9.45
2022-10-12T22:37:57.570Z,9.44
2022-10-12T22:40:25.457Z,9.47
2022-10-12T22:42:53.349Z,9.47
2022-10-12T22:45:27.767Z,9.51
2022-10-12T22:47:56.014Z,9.53
2022-10-12T22:50:23.923Z,9.54
2022-10-12T22:52:51.810Z,9.53
2022-10-12T22:55:19.667Z,9.57
2022-10-12T22:57:47.591Z,9.60
2022-10-12T23:00:16.703Z,9.65
2022-10-12T23:02:45.950Z,9.66
2022-10-12T23:05:13.895Z,9.71
2022-10-12T23:07:41.796Z,9.76
2022-10-12T23:10:10.326Z,9.76
2022-10-12T23:12:38.220Z,9.75
2022-10-12T23:15:06.914Z,9.81
2022-10-12T23:17:34.830Z,9.79
2022-10-12T23:20:04.612Z,9.82
2022-10-12T23:22:32.750Z,9.74
2022-10-12T23:25:00.776Z,9.76
2022-10-12T23:27:29.670Z,9.75
2022-10-12T23:29:57.577Z,9.70
2022-10-12T23:32:25.529Z,9.71
2022-10-12T23:34:53.543Z,9.68
2022-10-12T23:37:22.814Z,9.65
2022-10-12T23:39:50.706Z,9.64
2022-10-12T23:42:18.835Z,9.60
2022-10-12T23:44:46.962Z,9.61
2022-10-12T23:47:14.867Z,9.64
2022-10-12T23:49:42.822Z,9.60
2022-10-12T23:52:10.702Z,9.62
2022-10-12T23:54:39.974Z,9.70
2022-10-12T23:57:22.571Z,9.65
2022-10-12T23:59:55.962Z,9.60
